Stations météo

Publicité
Nimes/Courbessac, France (7645): Température de l'air & dewpoint: 11.12.2017 22:00:00 - 17.12.2017 22:00:00 (CET)Nimes/Courbessac, France (7645): Température de l'air 5cm: 11.12.2017 22:00:00 - 17.12.2017 22:00:00 (CET)Nimes/Courbessac, France (7645): Température de l'air -20cm: 11.12.2017 22:00:00 - 17.12.2017 22:00:00 (CET)Nimes/Courbessac, France (7645): Vitesse du vent & gusts: 11.12.2017 22:00:00 - 17.12.2017 22:00:00 (CET)Nimes/Courbessac, France (7645): Direction du vent: 11.12.2017 22:00:00 - 17.12.2017 22:00:00 (CET)Nimes/Courbessac, France (7645): reduced air pressure: 11.12.2017 22:00:00 - 17.12.2017 22:00:00 (CET)Nimes/Courbessac, France (7645): Ensoleillement: 11.12.2017 22:00:00 - 17.12.2017 22:00:00 (CET)Nimes/Courbessac, France (7645): Quantités de précipitations: 11.12.2017 22:00:00 - 17.12.2017 22:00:00 (CET)
Date & Time tt [°C] td [°C] tt 5cm [°C] tt -20cm [°C] ff [km/h] ff [knt] fx [km/h] fx [knt] dd ppp [hPa] sd [min] rr [mm]
17.12.2017 22:00:00 1,9 -1,0 0,1 6,2 8 4 14 7 NNW 1029,5 0 0,0
17.12.2017 21:00:00 2,9 -0,6 1,4 6,3 8 4 14 8 N 1029,2 0 0,0
17.12.2017 20:00:00 3,1 -0,2 1,4 6,3 7 4 17 9 NNE 1028,7 0 0,0
17.12.2017 19:00:00 3,8 0,0 1,7 6,3 6 4 14 8 NNE 1028,1 0 0,0
17.12.2017 18:00:00 4,1 -0,5 1,7 6,2 6 3 19 10 NNE 1027,4 0 0,0
17.12.2017 17:00:00 5,8 -0,3 5,3 6,1 11 6 23 13 NNE 1026,5 8 0,0
17.12.2017 16:00:00 8,3 0,0 8,1 6,1 14 8 26 14 NE 1025,7 53 0,0
17.12.2017 15:00:00 9,7 -1,4 12,7 6,0 10 5 27 15 NNW 1025,0 60 0,0
17.12.2017 14:00:00 9,0 -1,4 8,3 5,9 8 4 21 11 NNW 1025,3 20 0,0
17.12.2017 13:00:00 8,2 -0,6 8,3 5,9 13 7 21 11 NNW 1025,9 14 0,0
17.12.2017 12:00:00 7,1 -1,3 8,0 5,9 13 7 24 13 NNW 1026,7 27 0,0
17.12.2017 11:00:00 6,4 -1,3 5,1 5,9 12 7 20 11 NNW 1027,1 23 0,0
17.12.2017 10:00:00 6,4 -2,8 5,1 6,0 11 6 28 15 N 1026,5 26 0,0
17.12.2017 09:00:00 5,2 -3,6 2,2 6,1 13 7 24 13 NNW 1025,6 24 0,0
17.12.2017 08:00:00 3,3 -4,2 -0,5 6,2 14 8 26 14 NNW 1025,2 0 0,0
17.12.2017 07:00:00 2,0 -4,7 -1,9 6,2 6 3 14 8 N 1024,6 0 0,0
17.12.2017 06:00:00 2,5 -3,8 -0,6 6,3 5 3 20 11 NW 1024,2 0 0,0
17.12.2017 05:00:00 2,6 -4,0 -2,5 6,4 6 4 20 11 NNW 1023,5 0 0,0
17.12.2017 04:00:00 1,5 -4,4 -2,5 6,5 4 2 22 12 NW 1023,3 0 0,0
17.12.2017 03:00:00 3,6 -3,9 2,6 6,6 14 8 29 16 NNW 1023,2 0 0,0
17.12.2017 02:00:00 3,8 -3,3 2,3 6,7 12 6 23 12 NNW 1022,4 0 0,0
17.12.2017 01:00:00 3,7 -2,9 2,2 6,7 9 5 22 12 NW 1022,2 0 0,0
17.12.2017 00:00:00 3,2 -2,3 2,0 6,8 10 6 22 12 NNW 1022,1 0 0,0
16.12.2017 23:00:00 4,0 -1,2 2,4 6,8 13 7 24 13 NNW 1021,6 0 0,0
16.12.2017 22:00:00 4,1 -0,9 2,9 6,9 9 5 30 16 NNW 1021,0 0 0,0
16.12.2017 21:00:00 4,8 -0,4 3,7 6,9 16 9 33 18 NNW 1020,4 0 0,0
16.12.2017 20:00:00 4,8 -0,6 3,2 7,0 10 5 23 13 N 1019,5 0 0,0
16.12.2017 19:00:00 5,8 -0,7 4,8 6,9 13 7 35 19 NNW 1018,8 0 0,0
16.12.2017 18:00:00 6,6 -0,6 5,7 6,9 16 9 33 18 N 1018,0 0 0,0
16.12.2017 17:00:00 8,1 -1,7 7,0 6,9 10 5 40 22 N 1017,0 21 0,0
16.12.2017 16:00:00 9,9 -1,8 10,4 6,8 18 10 50 27 N 1015,7 58 0,0
16.12.2017 15:00:00 10,4 -2,0 12,3 6,7 23 12 48 26 N 1014,8 60 0,0
16.12.2017 14:00:00 10,5 -0,1 13,0 6,7 23 12 49 27 N 1014,5 60 0,0
16.12.2017 13:00:00 10,4 0,1 10,6 6,7 20 11 36 19 NNE 1014,3 60 0,0
16.12.2017 12:00:00 9,9 -0,3 11,0 6,6 9 5 22 12 NNE 1014,1 60 0,0
16.12.2017 11:00:00 9,2 -1,3 10,5 6,7 11 6 20 11 N 1014,2 60 0,0
16.12.2017 10:00:00 7,6 -1,4 5,5 6,8 3 1 18 10 N 1013,5 48 0,0
16.12.2017 09:00:00 5,4 -2,0 3,4 6,8 9 5 24 13 NW 1012,3 24 0,0
16.12.2017 08:00:00 4,8 -2,3 2,5 6,9 13 7 23 12 WNW 1011,6 0 0,0
16.12.2017 07:00:00 3,9 -2,9 1,9 7,0 11 6 19 11 WNW 1010,6 0 0,0
16.12.2017 06:00:00 4,9 -3,2 2,9 7,1 8 5 19 11 NNW 1009,7 0 0,0
16.12.2017 05:00:00 5,2 -3,4 3,7 7,2 9 5 23 12 WNW 1009,2 0 0,0
16.12.2017 04:00:00 5,7 -3,1 4,5 7,2 11 6 25 13 NW 1008,5 0 0,0
16.12.2017 03:00:00 6,0 -2,1 1,1 7,3 10 5 23 12 WNW 1008,2 0 0,0
16.12.2017 02:00:00 5,5 -1,9 2,0 7,4 5 3 30 16 NW 1007,6 0 0,0
16.12.2017 01:00:00 7,5 -1,7 2,1 7,5 17 9 32 18 NW 1006,8 0 0,0
16.12.2017 00:00:00 4,0 0,7 0,9 7,5 4 2 19 10 N 1006,9 0 0,0
15.12.2017 23:00:00 7,0 0,2 3,9 7,6 11 6 22 12 WNW 1006,0 0 0,0
15.12.2017 22:00:00 6,7 1,4 5,4 7,6 11 6 29 15 NW 1005,5 0 0,0
15.12.2017 21:00:00 6,9 1,6 5,8 7,6 14 8 26 14 W 1004,5 0 0,0
15.12.2017 20:00:00 7,5 1,8 6,7 7,6 12 7 24 13 WSW 1004,4 0 0,0
15.12.2017 19:00:00 7,9 1,7 6,9 7,6 10 6 24 13 WSW 1004,5 0 0,0
15.12.2017 18:00:00 8,9 1,3 7,9 7,6 12 7 21 11 W 1004,5 0 0,0
15.12.2017 17:00:00 10,0 0,3 9,0 7,5 6 3 33 18 WNW 1004,3 17 0,0
15.12.2017 16:00:00 11,4 0,2 10,8 7,5 15 8 34 19 NW 1004,0 47 0,0
15.12.2017 15:00:00 11,5 -0,3 12,3 7,4 17 9 40 22 NW 1003,5 52 0,0
15.12.2017 14:00:00 11,7 0,7 10,4 7,3 8 4 15 8 NNW 1003,8 43 0,0
15.12.2017 13:00:00 9,5 0,9 10,3 7,3 10 5 34 19 NW 1004,5 10 0,0
15.12.2017 12:00:00 10,1 1,2 9,4 7,2 19 10 39 21 NNW 1005,1 24 0,0
15.12.2017 11:00:00 8,5 2,1 7,5 7,2 17 9 36 19 NW 1005,7 0 0,0
15.12.2017 10:00:00 7,7 2,0 5,1 7,2 14 7 26 14 WNW 1006,0 0 0,0
15.12.2017 09:00:00 6,7 3,3 5,1 7,3 0 0 11 6 N 1004,7 0 0,0
15.12.2017 08:00:00 7,5 4,1 6,0 7,3 6 3 21 11 W 1004,5 0 0,0
15.12.2017 07:00:00 8,4 5,0 6,5 7,3 13 7 24 13 NW 1005,1 0 0,2
15.12.2017 06:00:00 8,6 6,0 5,9 7,4 10 6 22 12 NNW 1004,7 0 0,0
15.12.2017 05:00:00 6,8 5,9 2,3 7,5 8 4 18 10 SW 1004,1 0 0,0
15.12.2017 04:00:00 5,4 4,5 1,0 7,5 4 2 13 7 WSW 1005,2 0 0,0
15.12.2017 03:00:00 6,2 5,2 1,8 7,6 3 1 8 5 S 1005,7 0 0,0
15.12.2017 02:00:00 6,4 5,2 2,2 7,7 0 0 15 8 N 1005,8 0 0,0
15.12.2017 01:00:00 7,1 6,2 2,1 7,7 3 2 10 5 SW 1006,5 0 0,0
15.12.2017 00:00:00 7,0 4,5 4,5 7,8 6 4 10 6 SE 1007,6 0 0,0
14.12.2017 23:00:00 8,7 5,6 4,9 7,8 4 2 12 7 W 1007,6 0 0,0
14.12.2017 22:00:00 10,3 5,9 7,9 7,7 8 4 18 10 SSW 1008,3 0 0,0
14.12.2017 21:00:00 11,0 6,1 8,8 7,7 6 4 16 9 SW 1008,9 0 0,0
14.12.2017 20:00:00 11,8 5,9 10,7 7,7 7 4 22 12 WSW 1009,1 0 0,0
14.12.2017 19:00:00 11,9 5,7 6,6 7,6 10 5 19 10 WSW 1009,2 0 0,0
14.12.2017 18:00:00 11,9 6,0 8,7 7,5 4 2 27 14 W 1009,5 0 0,0
14.12.2017 17:00:00 13,7 5,6 13,2 7,4 14 8 34 18 WSW 1010,0 0 0,0
14.12.2017 16:00:00 14,3 4,3 13,8 7,3 17 9 37 20 W 1009,8 46 0,0
14.12.2017 15:00:00 15,1 4,2 14,2 7,1 23 12 46 25 W 1010,0 52 0,0
14.12.2017 14:00:00 14,3 7,1 15,3 7,0 11 6 22 12 SW 1010,6 26 0,0
14.12.2017 13:00:00 15,1 7,6 11,3 7,0 2 1 11 6 W 1011,8 60 0,0
14.12.2017 12:00:00 11,3 8,5 8,4 6,9 3 1 8 4 ESE 1012,9 18 0,0
14.12.2017 11:00:00 8,5 7,1 7,6 6,9 5 3 10 6 WNW 1014,1 0 0,0
14.12.2017 10:00:00 7,5 6,6 6,6 6,9 5 3 8 5 NNW 1014,3 0 0,0
14.12.2017 09:00:00 6,8 6,2 4,9 6,9 2 1 6 4 W 1014,0 0 0,0
14.12.2017 08:00:00 6,2 5,6 4,7 6,9 0 0 9 5 N 1013,6 0 0,0
14.12.2017 07:00:00 6,3 5,6 5,2 6,8 2 1 9 5 NNE 1013,0 0 0,0
14.12.2017 06:00:00 6,3 5,7 4,7 6,9 4 2 8 5 NNW 1013,1 0 0,0
14.12.2017 05:00:00 6,1 5,4 4,4 6,9 4 2 7 4 NNW 1013,2 0 0,0
14.12.2017 04:00:00 6,4 5,5 5,2 6,8 3 1 6 3 NNE 1013,5 0 0,0
14.12.2017 03:00:00 6,1 5,4 4,6 6,8 4 2 13 7 NW 1014,0 0 0,0
14.12.2017 02:00:00 5,4 4,5 4,1 6,8 0 0 8 5 N 1014,0 0 0,0
14.12.2017 01:00:00 5,9 5,0 4,3 6,8 0 0 14 8 N 1014,5 0 0,0
14.12.2017 00:00:00 5,0 3,8 4,0 6,8 4 2 10 5 SE 1015,4 0 0,0
13.12.2017 23:00:00 5,9 4,1 4,8 6,7 0 0 9 5 N 1016,3 0 0,4
13.12.2017 22:00:00 6,0 3,2 4,5 6,7 4 2 9 5 SSW 1016,5 0 0,0
13.12.2017 21:00:00 6,0 4,0 5,1 6,7 5 3 8 5 E 1016,9 0 0,0
13.12.2017 20:00:00 6,2 4,4 5,1 6,6 8 5 11 6 E 1017,2 0 0,2
13.12.2017 19:00:00 6,6 3,0 5,8 6,5 5 3 8 4 E 1017,7 0 0,0
13.12.2017 18:00:00 6,9 1,4 5,8 6,4 0 0 6 3 N 1018,3 0 0,0
13.12.2017 17:00:00 7,4 1,0 6,3 6,4 4 2 16 9 S 1018,6 0 0,0
13.12.2017 16:00:00 9,0 0,9 8,9 6,2 6 3 16 9 S 1018,9 0 0,0
13.12.2017 15:00:00 8,9 2,7 9,3 6,1 7 4 14 8 ESE 1018,8 7 0,0
13.12.2017 14:00:00 9,8 1,7 9,8 6,1 9 5 15 8 SE 1019,6 27 0,0
13.12.2017 13:00:00 8,6 0,6 8,6 6,0 5 3 13 7 ESE 1020,4 43 0,0
13.12.2017 12:00:00 8,3 0,7 9,6 6,1 9 5 13 7 SSE 1020,9 57 0,0
13.12.2017 11:00:00 6,8 -0,4 5,2 6,2 2 1 8 4 ESE 1022,0 43 0,0
13.12.2017 10:00:00 5,1 -1,6 2,2 6,3 3 1 8 5 SSW 1022,2 60 0,0
13.12.2017 09:00:00 1,8 -2,3 -2,3 6,4 5 3 13 7 W 1022,0 27 0,0
13.12.2017 08:00:00 -1,2 -2,9 -4,2 6,5 6 4 11 6 NNW 1022,0 0 0,0
13.12.2017 07:00:00 -0,3 -3,8 -2,0 6,6 3 2 13 7 ESE 1021,9 0 0,0
13.12.2017 06:00:00 1,0 -3,1 -0,8 6,7 10 5 18 10 N 1021,8 0 0,0
13.12.2017 05:00:00 -0,1 -3,0 -0,9 6,8 12 7 16 8 NNW 1021,6 0 0,0
13.12.2017 04:00:00 0,7 -2,4 -3,2 6,9 9 5 18 10 NNW 1021,7 0 0,0
13.12.2017 03:00:00 -0,4 -2,3 -3,4 7,0 5 3 11 6 N 1022,2 0 0,0
13.12.2017 02:00:00 2,6 -1,9 -0,5 7,1 8 4 19 10 NNW 1021,5 0 0,0
13.12.2017 01:00:00 0,8 -1,4 -2,1 7,2 7 4 14 8 NNW 1021,6 0 0,0
13.12.2017 00:00:00 1,5 -0,9 -2,2 7,3 7 4 17 9 NNW 1021,2 0 0,0
12.12.2017 23:00:00 1,7 -0,7 -2,7 7,5 3 1 11 6 WNW 1020,9 0 0,0
12.12.2017 22:00:00 1,2 -1,4 -1,7 7,5 3 1 16 8 ENE 1020,2 0 0,0
12.12.2017 21:00:00 3,5 0,4 -1,3 7,6 8 4 16 9 NNW 1019,7 0 0,0
12.12.2017 20:00:00 2,8 0,8 -0,6 7,6 5 3 14 8 NNW 1019,2 0 0,0
12.12.2017 19:00:00 4,6 1,8 1,0 7,6 8 4 20 11 N 1018,2 0 0,0
12.12.2017 18:00:00 4,5 2,2 1,5 7,6 4 2 9 5 N 1017,3 0 0,0
12.12.2017 17:00:00 6,5 2,6 5,1 7,5 4 2 13 7 N 1016,4 11 0,0
12.12.2017 16:00:00 7,7 2,8 8,1 7,4 7 4 25 13 NNE 1015,7 1 0,0
12.12.2017 15:00:00 8,7 4,5 9,1 7,3 11 6 20 11 N 1014,9 10 0,0
12.12.2017 14:00:00 8,3 4,7 8,9 7,2 8 4 19 10 NE 1013,8 0 0,0
12.12.2017 13:00:00 8,2 4,8 8,4 7,2 9 5 18 10 NNW 1014,0 1 0,0
12.12.2017 12:00:00 7,9 5,0 7,3 7,2 11 6 21 11 N 1013,4 16 0,0
12.12.2017 11:00:00 5,8 5,1 5,0 7,3 3 2 14 7 NNE 1013,0 0 0,0
12.12.2017 10:00:00 4,3 3,9 2,3 7,4 4 2 11 6 W 1012,7 0 0,0
12.12.2017 09:00:00 2,2 1,8 0,8 7,5 0 0 8 4 N 1011,3 0 0,0
12.12.2017 08:00:00 1,3 0,7 -0,5 7,6 6 3 13 7 SE 1009,8 0 0,0
12.12.2017 07:00:00 1,3 0,9 -2,1 7,7 4 2 11 6 NNW 1008,6 0 0,0
12.12.2017 06:00:00 0,3 -0,3 -2,0 7,8 5 3 12 6 ENE 1007,5 0 0,0
12.12.2017 05:00:00 0,5 -0,4 -0,1 7,9 3 2 9 5 E 1006,3 0 0,0
12.12.2017 04:00:00 1,3 0,4 -1,1 8,0 0 0 9 5 N 1005,8 0 0,0
12.12.2017 03:00:00 2,3 1,6 -0,2 8,1 6 3 10 5 NNW 1005,0 0 0,0
12.12.2017 02:00:00 2,6 1,7 0,2 8,2 3 2 10 5 N 1003,9 0 0,0
12.12.2017 01:00:00 3,6 2,3 0,4 8,3 3 2 12 6 N 1002,6 0 0,0
12.12.2017 00:00:00 5,7 4,5 4,2 8,3 8 4 21 12 WSW 1001,1 0 0,0
11.12.2017 23:00:00 6,5 5,0 5,1 8,4 10 6 26 14 WSW 999,9 0 0,0
11.12.2017 22:00:00 6,5 5,1 4,7 8,4 6 4 16 9 SW 998,5 0 0,0

tt = Température de l'air
td = dewpoint
tt 5cm = Température de l'air 5cm
tt -20cm = Température de l'air -20cm
ff = Vitesse du vent
fx = gusts
dd = Direction du vent
ppp = reduced air pressure
sd = Ensoleillement
rr = Quantités de précipitations

stations d'obs. à proximité